Time;durP1;ratioP1;P1;durP2;ratioP2;P2;SDS_P1;SDS_P2;PMS_P1;PMS_P2;Temp;Humidity;BMP_temperature;BMP_pressure;BME280_temperature;BME280_humidity;BME280_pressure;Samples;Min_cycle;Max_cycle;Signal;HPM_P1;HPM_P2
2022/07/19 00:02:07;;;;;;;;;;;;;;;16.79;33.25;96049.06;5003235;28;20064;-62
2022/07/19 00:04:32;;;;;;;;;;;;;;;16.68;34.04;96050.53;5004500;28;20005;-61
2022/07/19 00:06:58;;;;;;;;;;;;;;;16.61;33.81;96047.84;4998643;28;20358;-63
2022/07/19 00:09:23;;;;;;;;;;;;;;;16.59;33.43;96049.09;5002375;28;20079;-63
2022/07/19 00:11:48;;;;;;;;;;;;;;;16.60;33.59;96040.00;5000106;28;20031;-61
2022/07/19 00:14:14;;;;;;;;;;;;;;;16.70;33.15;96044.94;5001309;28;20003;-62
2022/07/19 00:16:39;;;;;;;;;;;;;;;16.59;33.44;96035.66;5000510;28;20039;-63
2022/07/19 00:19:04;;;;;;;;;;;;;;;16.61;33.39;96037.09;5004023;28;20032;-62
2022/07/19 00:21:29;;;;;;;;;;;;;;;16.49;33.90;96033.38;5002127;28;20001;-64
2022/07/19 00:23:55;;;;;;;;;;;;;;;16.45;33.81;96030.25;5000436;28;20455;-64
2022/07/19 00:26:20;;;;;;;;;;;;;;;16.46;33.47;96031.91;5002004;28;20104;-63
2022/07/19 00:28:45;;;;;;;;;;;;;;;16.37;33.67;96025.94;5002205;28;20033;-63
2022/07/19 00:31:10;;;;;;;;;;;;;;;16.37;33.10;96033.97;5003217;28;19981;-63
2022/07/19 00:33:35;;;;;;;;;;;;;;;16.30;33.55;96026.91;5002028;28;20250;-63
2022/07/19 00:36:01;;;;;;;;;;;;;;;16.25;33.64;96025.66;5004784;28;20091;-63
2022/07/19 00:38:26;;;;;;;;;;;;;;;16.20;32.99;96025.44;5002358;28;20017;-63
2022/07/19 00:40:51;;;;;;;;;;;;;;;16.16;33.15;96024.22;5003772;28;19996;-65
2022/07/19 00:43:17;;;;;;;;;;;;;;;16.13;33.22;96021.94;4987204;28;20124;-63
2022/07/19 00:45:42;;;;;;;;;;;;;;;16.17;33.36;96031.22;5004136;28;19972;-63
2022/07/19 00:48:07;;;;;;;;;;;;;;;16.13;33.26;96024.63;5003702;28;19993;-64
2022/07/19 00:50:33;;;;;;;;;;;;;;;16.05;33.69;96022.13;5004289;28;19973;-65
2022/07/19 00:53:00;;;;;;;;;;;;;;;15.98;33.86;96017.53;5004174;28;19999;-63
2022/07/19 00:55:26;;;;;;;;;;;;;;;16.02;33.55;96014.47;4986309;28;20402;-62
2022/07/19 00:57:51;;;;;;;;;;;;;;;16.00;33.76;96018.19;5004025;28;19997;-63
2022/07/19 01:00:17;;;;;;;;;;;;;;;15.98;33.42;96019.44;5003765;28;20556;-63
2022/07/19 01:02:43;;;;;;;;;;;;;;;15.98;33.25;96019.44;5003768;28;20475;-63
2022/07/19 01:05:08;;;;;;;;;;;;;;;15.96;33.46;96018.78;5003589;28;19993;-63
2022/07/19 01:07:40;;;;;;;;;;;;;;;15.87;33.76;96026.19;5003520;28;20067;-64
2022/07/19 01:10:05;;;;;;;;;;;;;;;15.91;33.15;96015.88;5003213;28;20024;-65
2022/07/19 01:12:34;;;;;;;;;;;;;;;15.95;32.98;96017.13;5002671;28;20033;-66
2022/07/19 01:14:59;;;;;;;;;;;;;;;16.02;33.12;96017.16;5003637;28;20039;-63
2022/07/19 01:17:24;;;;;;;;;;;;;;;16.00;33.41;96022.72;5002921;28;19989;-63
2022/07/19 01:19:50;;;;;;;;;;;;;;;15.87;33.47;96020.81;4985263;28;20001;-65
2022/07/19 01:22:15;;;;;;;;;;;;;;;15.76;33.87;96014.19;5003819;28;20300;-64
2022/07/19 01:24:40;;;;;;;;;;;;;;;15.73;34.15;96020.78;5002863;28;19993;-64
2022/07/19 01:27:06;;;;;;;;;;;;;;;15.75;33.87;96018.72;5003508;28;20006;-65
2022/07/19 01:29:31;;;;;;;;;;;;;;;15.75;33.72;96017.91;5002714;28;19989;-64
2022/07/19 01:31:56;;;;;;;;;;;;;;;15.74;34.04;96019.75;5002848;28;19996;-64
2022/07/19 01:34:22;;;;;;;;;;;;;;;15.68;34.09;96017.91;5003613;28;20064;-64
2022/07/19 01:36:47;;;;;;;;;;;;;;;15.68;33.71;96020.56;5002937;28;20028;-62
2022/07/19 01:39:12;;;;;;;;;;;;;;;15.67;33.83;96015.41;5003375;28;20016;-63
2022/07/19 01:41:37;;;;;;;;;;;;;;;15.67;33.98;96021.59;5002782;28;19990;-63
2022/07/19 01:44:03;;;;;;;;;;;;;;;15.70;33.46;96023.88;5002806;28;20599;-64
2022/07/19 01:46:28;;;;;;;;;;;;;;;15.74;33.52;96021.63;5002456;28;20416;-63
2022/07/19 01:48:53;;;;;;;;;;;;;;;15.77;33.41;96031.13;5003049;28;19991;-63
2022/07/19 01:51:18;;;;;;;;;;;;;;;15.73;33.80;96025.31;5002212;28;19981;-63
2022/07/19 01:53:44;;;;;;;;;;;;;;;15.69;33.69;96029.44;5003863;28;20000;-63
2022/07/19 01:56:09;;;;;;;;;;;;;;;15.65;33.59;96033.56;5002473;28;20459;-63
2022/07/19 01:58:34;;;;;;;;;;;;;;;15.54;34.20;96027.69;5003034;28;20064;-63
2022/07/19 02:00:59;;;;;;;;;;;;;;;15.48;34.53;96017.78;5002299;28;20051;-63
2022/07/19 02:03:25;;;;;;;;;;;;;;;15.41;34.18;96015.06;5000821;28;20257;-64
2022/07/19 02:05:50;;;;;;;;;;;;;;;15.36;34.18;96017.50;5002446;28;19977;-64
2022/07/19 02:08:15;;;;;;;;;;;;;;;15.36;33.96;96020.19;5004163;28;20478;-63
2022/07/19 02:10:40;;;;;;;;;;;;;;;15.39;33.57;96022.47;5003817;28;20478;-62
2022/07/19 02:13:05;;;;;;;;;;;;;;;15.41;33.51;96016.91;5002816;28;20002;-64
2022/07/19 02:15:31;;;;;;;;;;;;;;;15.39;33.69;96014.44;5003169;28;19978;-64
2022/07/19 02:17:56;;;;;;;;;;;;;;;15.38;33.87;96012.78;5003710;28;20017;-64
2022/07/19 02:20:21;;;;;;;;;;;;;;;15.37;33.73;96008.44;5002554;28;20489;-63
2022/07/19 02:22:47;;;;;;;;;;;;;;;15.39;33.45;96009.06;5003444;28;20394;-64
2022/07/19 02:25:12;;;;;;;;;;;;;;;15.41;33.46;96006.19;5001918;28;19997;-63
2022/07/19 02:27:37;;;;;;;;;;;;;;;15.42;33.60;96005.16;4985781;28;20023;-63
2022/07/19 02:30:03;;;;;;;;;;;;;;;15.42;33.62;96000.63;4985318;28;19988;-65
2022/07/19 02:32:28;;;;;;;;;;;;;;;15.41;33.63;95998.97;5004107;28;19992;-62
2022/07/19 02:34:54;;;;;;;;;;;;;;;15.44;33.71;95998.53;5003687;28;20097;-63
2022/07/19 02:37:19;;;;;;;;;;;;;;;15.45;33.33;95996.69;5002790;28;20004;-63
2022/07/19 02:39:44;;;;;;;;;;;;;;;15.40;33.93;95994.63;5002544;28;19989;-64
2022/07/19 02:42:10;;;;;;;;;;;;;;;15.41;33.50;95995.44;5003331;28;20434;-63
2022/07/19 02:44:35;;;;;;;;;;;;;;;15.45;33.79;95997.53;5002555;28;20493;-63
2022/07/19 02:47:00;;;;;;;;;;;;;;;15.51;33.82;96000.44;5003811;28;19980;-63
2022/07/19 02:49:25;;;;;;;;;;;;;;;15.51;33.77;95992.41;5003860;28;20009;-63
2022/07/19 02:51:51;;;;;;;;;;;;;;;15.53;33.33;95990.34;5005129;28;19985;-63
2022/07/19 02:54:16;;;;;;;;;;;;;;;15.55;33.44;95985.59;5004875;28;19997;-63
2022/07/19 02:56:41;;;;;;;;;;;;;;;15.61;32.98;95985.66;5004859;28;20402;-62
2022/07/19 02:59:06;;;;;;;;;;;;;;;15.63;33.05;95982.75;5005208;28;20004;-63
2022/07/19 03:01:31;;;;;;;;;;;;;;;15.61;33.04;95984.84;5005241;28;20017;-62
2022/07/19 03:03:57;;;;;;;;;;;;;;;15.59;33.15;95987.72;5004051;28;19989;-63
2022/07/19 03:06:22;;;;;;;;;;;;;;;15.53;33.57;95985.78;5004470;28;19970;-64
2022/07/19 03:08:47;;;;;;;;;;;;;;;15.54;33.07;95992.00;5003456;28;19992;-63
2022/07/19 03:11:13;;;;;;;;;;;;;;;15.48;33.81;95988.25;5007128;28;19969;-63
2022/07/19 03:13:38;;;;;;;;;;;;;;;15.45;33.75;95994.84;5007998;28;20000;-62
2022/07/19 03:16:03;;;;;;;;;;;;;;;15.46;33.70;95993.81;5008028;28;20164;-63
2022/07/19 03:18:28;;;;;;;;;;;;;;;15.43;33.80;95990.72;5008071;28;20233;-66
2022/07/19 03:20:55;;;;;;;;;;;;;;;15.44;33.65;95990.50;5008262;28;19990;-64
2022/07/19 03:23:20;;;;;;;;;;;;;;;15.51;33.52;95989.72;5007109;28;19982;-64
2022/07/19 03:25:45;;;;;;;;;;;;;;;15.55;33.20;95994.47;5008377;28;20323;-64
2022/07/19 03:28:10;;;;;;;;;;;;;;;15.49;33.98;95997.97;5008101;28;19990;-66
2022/07/19 03:30:36;;;;;;;;;;;;;;;15.47;34.12;95995.47;5008970;28;20061;-62
2022/07/19 03:33:01;;;;;;;;;;;;;;;15.43;34.06;95990.72;5009001;28;20036;-62
2022/07/19 03:35:26;;;;;;;;;;;;;;;15.41;34.31;95993.59;5008227;28;20020;-63
2022/07/19 03:37:51;;;;;;;;;;;;;;;15.42;33.65;95987.22;5008625;28;20376;-64
2022/07/19 03:40:17;;;;;;;;;;;;;;;15.42;33.75;95987.22;5010197;28;20012;-64
2022/07/19 03:42:42;;;;;;;;;;;;;;;15.43;33.43;95988.84;5010187;28;20004;-64
2022/07/19 03:45:07;;;;;;;;;;;;;;;15.49;33.57;95987.22;5010069;28;20084;-63
2022/07/19 03:47:33;;;;;;;;;;;;;;;15.51;33.74;95987.03;5007999;28;19977;-63
2022/07/19 03:49:58;;;;;;;;;;;;;;;15.52;33.68;95991.34;5008110;28;19974;-63
2022/07/19 03:52:23;;;;;;;;;;;;;;;15.53;33.49;95979.63;5008161;28;20009;-63
2022/07/19 03:54:49;;;;;;;;;;;;;;;15.58;33.15;95986.06;5008300;28;20410;-64
2022/07/19 03:57:14;;;;;;;;;;;;;;;15.65;32.94;95991.47;5007644;28;20056;-63
2022/07/19 03:59:39;;;;;;;;;;;;;;;15.69;33.30;95987.34;4991061;28;19974;-64
2022/07/19 04:02:04;;;;;;;;;;;;;;;15.79;33.01;95986.13;5010042;28;20073;-63
2022/07/19 04:04:29;;;;;;;;;;;;;;;15.79;33.53;95991.47;5008193;28;19989;-65
2022/07/19 04:06:55;;;;;;;;;;;;;;;15.82;33.07;95994.59;5008142;28;20013;-64
2022/07/19 04:09:20;;;;;;;;;;;;;;;15.86;32.83;95993.16;5007939;28;20040;-64
2022/07/19 04:11:45;;;;;;;;;;;;;;;15.93;33.10;95995.88;5009574;28;20076;-62
2022/07/19 04:14:10;;;;;;;;;;;;;;;15.99;33.19;95992.38;5008382;28;20048;-65
2022/07/19 04:16:36;;;;;;;;;;;;;;;16.06;33.42;95996.91;5007785;28;19990;-65
2022/07/19 04:19:01;;;;;;;;;;;;;;;16.17;32.88;95999.00;5008238;28;19977;-64
2022/07/19 04:21:26;;;;;;;;;;;;;;;16.23;33.17;96005.41;5006176;28;19996;-63
2022/07/19 04:23:51;;;;;;;;;;;;;;;16.25;32.92;95993.44;5003850;28;20471;-65
2022/07/19 04:26:17;;;;;;;;;;;;;;;16.34;32.86;95999.44;5004987;28;20416;-65
2022/07/19 04:28:42;;;;;;;;;;;;;;;16.39;33.10;95999.66;5004135;28;20054;-65
2022/07/19 04:31:07;;;;;;;;;;;;;;;16.48;33.00;96008.34;5004789;28;20024;-63
2022/07/19 04:33:32;;;;;;;;;;;;;;;16.54;32.97;96003.19;5003757;28;20213;-63
2022/07/19 04:35:58;;;;;;;;;;;;;;;16.58;32.85;96002.56;5004032;28;19990;-64
2022/07/19 04:38:23;;;;;;;;;;;;;;;16.64;32.47;95999.06;5003651;28;20283;-64
2022/07/19 04:40:48;;;;;;;;;;;;;;;16.74;32.40;95998.63;5004391;28;20413;-63
2022/07/19 04:43:13;;;;;;;;;;;;;;;16.87;32.43;96008.53;4986476;28;19968;-65
2022/07/19 04:45:44;;;;;;;;;;;;;;;16.99;32.78;96006.03;4985778;28;20080;-65
2022/07/19 04:48:09;;;;;;;;;;;;;;;17.07;32.40;96002.31;4985895;28;20016;-65
2022/07/19 04:50:34;;;;;;;;;;;;;;;17.21;31.84;96003.13;5004275;28;20287;-63
2022/07/19 04:52:59;;;;;;;;;;;;;;;17.28;31.70;95998.53;5003225;28;19988;-64
2022/07/19 04:55:25;;;;;;;;;;;;;;;17.35;32.33;95998.53;5003057;28;19988;-65
2022/07/19 04:57:50;;;;;;;;;;;;;;;17.52;31.89;95995.38;5001415;28;20000;-64
2022/07/19 05:00:15;;;;;;;;;;;;;;;17.69;31.89;95993.00;4991943;28;20208;-64
2022/07/19 05:02:40;;;;;;;;;;;;;;;17.82;32.16;95994.81;4999074;28;19967;-65
2022/07/19 05:05:06;;;;;;;;;;;;;;;18.00;31.74;95993.28;4994852;28;20532;-65
2022/07/19 05:07:31;;;;;;;;;;;;;;;18.13;32.57;95987.84;4969025;28;19979;-63
2022/07/19 05:09:56;;;;;;;;;;;;;;;18.29;32.80;95988.34;4998017;28;19970;-65
2022/07/19 05:12:22;;;;;;;;;;;;;;;18.44;32.85;95988.84;4976259;28;19989;-65
2022/07/19 05:14:47;;;;;;;;;;;;;;;18.62;32.87;95994.53;4989228;28;20131;-64
2022/07/19 05:17:12;;;;;;;;;;;;;;;18.79;33.08;95989.41;4991202;28;20384;-64
2022/07/19 05:19:38;;;;;;;;;;;;;;;18.96;32.66;95989.66;4985737;28;19987;-64
2022/07/19 05:22:03;;;;;;;;;;;;;;;19.15;32.81;95997.75;4987457;28;19969;-64
2022/07/19 05:24:28;;;;;;;;;;;;;;;19.34;32.52;95990.50;4991176;28;19985;-64
2022/07/19 05:26:53;;;;;;;;;;;;;;;19.54;31.14;95990.28;4993321;28;19981;-63
2022/07/19 05:29:19;;;;;;;;;;;;;;;19.76;31.46;95986.28;4987466;28;20141;-64
2022/07/19 05:31:44;;;;;;;;;;;;;;;20.01;31.26;95988.88;4990630;28;19988;-64
2022/07/19 05:34:09;;;;;;;;;;;;;;;20.27;32.12;95991.41;4990770;28;20029;-65
2022/07/19 05:36:34;;;;;;;;;;;;;;;20.47;32.00;95988.41;4986120;28;19995;-65
2022/07/19 05:39:00;;;;;;;;;;;;;;;20.70;31.83;95981.41;4986371;28;20438;-65
2022/07/19 05:41:25;;;;;;;;;;;;;;;20.96;30.51;95987.38;4985379;28;20488;-65
2022/07/19 05:43:50;;;;;;;;;;;;;;;21.19;29.13;95985.72;4990097;28;19986;-64
2022/07/19 05:46:16;;;;;;;;;;;;;;;21.40;28.29;95986.19;4990016;28;19957;-65
2022/07/19 05:48:41;;;;;;;;;;;;;;;21.60;27.63;95981.19;4970498;28;20067;-63
2022/07/19 05:51:07;;;;;;;;;;;;;;;21.74;27.28;95989.03;4996655;28;20520;-65
2022/07/19 05:53:32;;;;;;;;;;;;;;;21.98;26.46;95980.81;4990668;28;20028;-64
2022/07/19 05:55:57;;;;;;;;;;;;;;;22.13;26.96;95983.81;4985228;28;19974;-65
2022/07/19 05:58:24;;;;;;;;;;;;;;;22.37;26.17;95986.38;4995057;28;20579;-66
2022/07/19 06:03:33;;;;;;;;;;;;;;;22.77;26.52;95983.78;5002256;28;20071;-64
2022/07/19 06:05:58;;;;;;;;;;;;;;;22.95;25.38;95988.16;5003130;28;20458;-66
2022/07/19 06:08:24;;;;;;;;;;;;;;;23.10;25.08;95994.84;5003612;28;20427;-65
2022/07/19 06:10:49;;;;;;;;;;;;;;;23.36;25.02;95987.09;4986792;28;19955;-63
2022/07/19 06:13:14;;;;;;;;;;;;;;;23.58;24.89;95987.06;5004525;28;20068;-65
2022/07/19 06:15:40;;;;;;;;;;;;;;;23.85;23.95;95988.22;5005042;28;20032;-65
2022/07/19 06:18:05;;;;;;;;;;;;;;;24.06;24.17;96000.13;5005160;28;19946;-65
2022/07/19 06:20:30;;;;;;;;;;;;;;;24.30;23.73;95988.97;5004203;28;19978;-66
2022/07/19 06:22:55;;;;;;;;;;;;;;;24.51;24.05;95995.41;5005571;28;20464;-65
2022/07/19 06:25:21;;;;;;;;;;;;;;;24.70;23.15;95990.38;4987483;28;20516;-66
2022/07/19 06:27:46;;;;;;;;;;;;;;;24.86;22.77;95993.22;5000680;28;19988;-65
2022/07/19 06:30:11;;;;;;;;;;;;;;;25.09;23.04;95994.75;5005481;28;19949;-65
2022/07/19 06:32:36;;;;;;;;;;;;;;;25.32;22.78;95991.91;5005247;28;19960;-65
2022/07/19 06:35:02;;;;;;;;;;;;;;;25.47;22.12;95989.28;5001655;28;19962;-65
2022/07/19 06:37:27;;;;;;;;;;;;;;;25.68;22.41;95989.34;4999359;28;19969;-63
2022/07/19 06:39:52;;;;;;;;;;;;;;;25.87;22.37;95991.59;5003099;28;19965;-65
2022/07/19 06:42:17;;;;;;;;;;;;;;;26.11;21.77;95997.38;5005705;28;19944;-65
2022/07/19 06:44:43;;;;;;;;;;;;;;;26.36;21.13;96000.41;5003001;28;19961;-65
2022/07/19 06:47:08;;;;;;;;;;;;;;;26.48;21.21;95990.06;5005816;28;19943;-64
2022/07/19 06:49:33;;;;;;;;;;;;;;;26.66;19.13;95987.91;5004220;28;20285;-64
2022/07/19 06:51:58;;;;;;;;;;;;;;;26.88;19.85;95993.06;5003487;28;20368;-66
2022/07/19 06:54:24;;;;;;;;;;;;;;;26.98;19.63;95994.97;5003592;28;19958;-64
2022/07/19 06:56:49;;;;;;;;;;;;;;;27.16;19.10;95997.41;5002854;28;19959;-64
2022/07/19 06:59:14;;;;;;;;;;;;;;;27.34;18.86;95993.28;5002237;28;20063;-63
2022/07/19 07:01:39;;;;;;;;;;;;;;;27.38;19.06;95994.34;5002833;28;19962;-65
2022/07/19 07:04:05;;;;;;;;;;;;;;;27.21;18.89;95995.50;5003249;28;19954;-64
2022/07/19 07:06:30;;;;;;;;;;;;;;;27.46;18.87;95995.69;5001081;28;20330;-64
2022/07/19 07:08:55;;;;;;;;;;;;;;;27.58;18.45;95996.19;5001325;28;20359;-65
2022/07/19 07:11:21;;;;;;;;;;;;;;;27.57;18.62;96001.94;5000105;28;19936;-66
2022/07/19 07:13:46;;;;;;;;;;;;;;;27.31;18.87;95999.28;5005589;28;19930;-64
2022/07/19 07:16:11;;;;;;;;;;;;;;;27.60;18.58;96007.66;5006107;28;19963;-64
2022/07/19 07:18:36;;;;;;;;;;;;;;;27.74;18.53;96004.34;5000903;28;20309;-64
2022/07/19 07:21:02;;;;;;;;;;;;;;;28.00;17.73;96005.03;4983406;28;20186;-65
2022/07/19 07:23:27;;;;;;;;;;;;;;;28.07;17.17;96001.19;4998603;28;20397;-65
2022/07/19 07:25:53;;;;;;;;;;;;;;;28.22;17.46;96008.50;5002466;28;20476;-64
2022/07/19 07:28:19;;;;;;;;;;;;;;;28.08;17.56;96003.63;4999721;28;19948;-64
2022/07/19 07:30:44;;;;;;;;;;;;;;;28.07;17.01;96003.91;5003950;28;19938;-64
2022/07/19 07:33:09;;;;;;;;;;;;;;;27.23;17.29;95998.75;5002949;28;19928;-65
2022/07/19 07:35:34;;;;;;;;;;;;;;;27.51;17.12;96009.34;5004728;28;19932;-64
2022/07/19 07:38:00;;;;;;;;;;;;;;;27.83;15.84;95999.13;5001783;28;19918;-64
2022/07/19 07:40:25;;;;;;;;;;;;;;;27.89;17.30;96001.53;5004326;28;19932;-64
2022/07/19 07:42:50;;;;;;;;;;;;;;;28.12;16.02;96006.59;5000527;28;19926;-64
2022/07/19 07:45:15;;;;;;;;;;;;;;;28.25;16.20;96006.00;4990331;28;19958;-62
2022/07/19 07:47:41;;;;;;;;;;;;;;;28.43;15.82;96014.66;5001900;28;20267;-65
2022/07/19 07:50:06;;;;;;;;;;;;;;;28.34;15.90;96013.63;5001109;28;19994;-64
2022/07/19 07:52:32;;;;;;;;;;;;;;;28.67;15.74;96006.56;5003199;28;20233;-65
2022/07/19 07:54:57;;;;;;;;;;;;;;;28.67;15.30;96011.19;4996645;28;19940;-65
2022/07/19 07:57:23;;;;;;;;;;;;;;;28.78;16.03;96004.53;4997382;28;19948;-64
2022/07/19 07:59:48;;;;;;;;;;;;;;;29.05;15.32;96003.19;4999322;28;20545;-65
2022/07/19 08:02:13;;;;;;;;;;;;;;;28.50;15.71;96001.44;5000362;28;20875;-64
2022/07/19 08:04:38;;;;;;;;;;;;;;;29.21;15.51;95997.56;5002804;28;19933;-64
2022/07/19 08:07:04;;;;;;;;;;;;;;;29.40;14.78;95999.56;5003882;28;20012;-66
2022/07/19 08:09:30;;;;;;;;;;;;;;;28.77;14.96;95999.34;5002243;28;19964;-64
2022/07/19 08:11:55;;;;;;;;;;;;;;;29.20;15.14;95995.13;5001708;28;19972;-63
2022/07/19 08:14:21;;;;;;;;;;;;;;;29.58;14.37;95997.97;5002600;28;20290;-65
2022/07/19 08:16:46;;;;;;;;;;;;;;;29.33;13.88;95996.34;5003029;28;20416;-64
2022/07/19 08:19:11;;;;;;;;;;;;;;;29.55;14.22;95993.91;5001260;28;19921;-63
2022/07/19 08:21:36;;;;;;;;;;;;;;;29.42;14.26;95989.94;5002630;28;19922;-66
2022/07/19 08:24:02;;;;;;;;;;;;;;;29.38;13.51;95993.53;5001748;28;20545;-64
2022/07/19 08:26:27;;;;;;;;;;;;;;;29.44;14.24;95992.38;5001182;28;20484;-64
2022/07/19 08:28:52;;;;;;;;;;;;;;;29.93;13.49;95989.59;5003677;28;19929;-65
2022/07/19 08:31:17;;;;;;;;;;;;;;;30.37;13.29;95989.53;4999781;28;19955;-65
2022/07/19 08:33:43;;;;;;;;;;;;;;;30.66;13.47;95988.56;5000256;28;19963;-64
2022/07/19 08:36:09;;;;;;;;;;;;;;;30.87;13.21;95986.28;5001430;28;19955;-65
2022/07/19 08:38:34;;;;;;;;;;;;;;;31.15;12.30;95978.09;5001812;28;19968;-64
2022/07/19 08:41:00;;;;;;;;;;;;;;;30.73;14.43;95991.72;5000586;28;20448;-65
2022/07/19 08:43:26;;;;;;;;;;;;;;;30.90;13.44;95980.19;4986979;28;19953;-66
2022/07/19 08:45:51;;;;;;;;;;;;;;;31.08;13.37;95989.47;5000191;28;20340;-64
2022/07/19 08:48:17;;;;;;;;;;;;;;;31.50;12.89;95996.13;5001335;28;19922;-64
2022/07/19 08:50:42;;;;;;;;;;;;;;;31.31;13.44;95992.38;4985648;28;19928;-66
2022/07/19 08:53:08;;;;;;;;;;;;;;;30.60;12.79;95998.78;4983179;28;19968;-64
2022/07/19 08:55:33;;;;;;;;;;;;;;;30.82;12.83;95989.91;5000186;28;19960;-65
2022/07/19 08:58:00;;;;;;;;;;;;;;;31.17;13.08;95989.56;5001207;28;20452;-64
2022/07/19 09:00:26;;;;;;;;;;;;;;;31.48;13.34;95996.44;4996111;28;19952;-65
2022/07/19 09:02:52;;;;;;;;;;;;;;;31.89;13.46;95988.44;4999401;28;20457;-65
2022/07/19 09:05:17;;;;;;;;;;;;;;;31.41;14.05;95994.09;4999625;28;19955;-64
2022/07/19 09:07:42;;;;;;;;;;;;;;;31.90;13.14;95990.91;4998562;28;19925;-65
2022/07/19 09:10:15;;;;;;;;;;;;;;;31.40;11.73;95983.41;4987059;28;19925;-65
2022/07/19 09:12:58;;;;;;;;;;;;;;;31.71;11.60;95982.78;4997502;28;19929;-64
2022/07/19 09:15:39;;;;;;;;;;;;;;;31.68;12.92;95981.44;4999647;28;20192;-65
2022/07/19 09:18:05;;;;;;;;;;;;;;;31.19;12.29;95989.28;4999835;28;20297;-62
2022/07/19 09:20:30;;;;;;;;;;;;;;;30.47;13.08;95981.13;5001305;28;19932;-62
2022/07/19 09:22:55;;;;;;;;;;;;;;;31.64;12.95;95976.88;4998785;28;20068;-64
2022/07/19 09:25:31;;;;;;;;;;;;;;;31.96;13.04;95984.16;4999987;28;20291;-61
2022/07/19 09:27:56;;;;;;;;;;;;;;;32.23;12.63;95976.16;5001155;28;19936;-63
2022/07/19 09:30:38;;;;;;;;;;;;;;;32.77;11.84;95983.69;4999314;28;19929;-64
2022/07/19 09:33:07;;;;;;;;;;;;;;;32.46;12.55;95978.91;5000085;28;19957;-65
2022/07/19 09:35:59;;;;;;;;;;;;;;;32.31;11.96;95971.81;4996229;28;19933;-63
2022/07/19 09:38:25;;;;;;;;;;;;;;;32.68;11.67;95980.88;4995953;28;19921;-65
2022/07/19 09:40:52;;;;;;;;;;;;;;;32.72;11.06;95981.88;4997823;28;19925;-64
2022/07/19 09:43:18;;;;;;;;;;;;;;;32.78;12.84;95973.47;4980639;28;20335;-65
2022/07/19 09:45:44;;;;;;;;;;;;;;;33.08;11.63;95974.63;4999525;28;19921;-66
2022/07/19 09:48:09;;;;;;;;;;;;;;;33.17;11.79;95965.59;5000192;28;19972;-63
2022/07/19 09:50:34;;;;;;;;;;;;;;;32.86;11.15;95970.75;4980365;28;20008;-65
2022/07/19 09:53:03;;;;;;;;;;;;;;;33.21;11.50;95969.34;4997536;28;19925;-64
2022/07/19 09:55:29;;;;;;;;;;;;;;;33.37;11.87;95962.25;4997987;28;20604;-64
2022/07/19 09:57:55;;;;;;;;;;;;;;;30.83;12.48;95969.56;4988962;28;20060;-64
2022/07/19 10:00:21;;;;;;;;;;;;;;;31.69;12.68;95963.00;4960579;28;20379;-64
2022/07/19 10:02:53;;;;;;;;;;;;;;;32.50;12.34;95969.69;4977653;28;19960;-64
2022/07/19 10:05:18;;;;;;;;;;;;;;;32.57;13.10;95969.31;4979699;28;20171;-65
2022/07/19 10:07:44;;;;;;;;;;;;;;;33.36;11.63;95966.16;4978307;28;19926;-66
2022/07/19 10:10:10;;;;;;;;;;;;;;;33.86;11.15;95958.66;4976362;28;20381;-63
2022/07/19 10:12:39;;;;;;;;;;;;;;;34.13;10.71;95970.56;4977364;28;20253;-63
2022/07/19 10:15:05;;;;;;;;;;;;;;;33.33;12.58;95972.28;4974087;28;19926;-64
2022/07/19 10:17:41;;;;;;;;;;;;;;;33.90;11.28;95970.69;4975956;28;20433;-59
2022/07/19 10:20:06;;;;;;;;;;;;;;;33.74;11.09;95963.97;4978272;28;20198;-60
2022/07/19 10:22:32;;;;;;;;;;;;;;;33.65;11.94;95962.00;4960593;28;20226;-58
2022/07/19 10:24:58;;;;;;;;;;;;;;;34.09;11.98;95968.75;4978072;28;20017;-58
2022/07/19 10:27:23;;;;;;;;;;;;;;;34.08;10.82;95953.34;4977871;28;20114;-61
2022/07/19 10:29:48;;;;;;;;;;;;;;;34.86;11.16;95950.81;4979227;28;20016;-63
2022/07/19 10:32:14;;;;;;;;;;;;;;;34.88;10.12;95949.38;4977614;28;19973;-62
2022/07/19 10:34:40;;;;;;;;;;;;;;;35.28;10.46;95939.94;4977014;28;19976;-62
2022/07/19 10:37:05;;;;;;;;;;;;;;;34.86;11.12;95946.09;4978047;28;19981;-64
2022/07/19 10:39:33;;;;;;;;;;;;;;;35.24;10.55;95938.19;4976976;28;20468;-63
2022/07/19 10:42:17;;;;;;;;;;;;;;;35.54;10.67;95940.94;4975231;28;20439;-64
2022/07/19 10:44:55;;;;;;;;;;;;;;;35.47;10.73;95935.94;4975216;28;19932;-63
2022/07/19 10:47:33;;;;;;;;;;;;;;;35.26;10.83;95933.94;4977688;28;19969;-63
2022/07/19 10:50:04;;;;;;;;;;;;;;;35.77;10.35;95937.88;4977392;28;19973;-64
2022/07/19 10:52:29;;;;;;;;;;;;;;;36.01;9.94;95934.44;4975094;28;20485;-64
2022/07/19 10:55:14;;;;;;;;;;;;;;;34.05;10.95;95935.44;4977539;28;19926;-65
2022/07/19 10:57:40;;;;;;;;;;;;;;;34.39;10.53;95933.84;4980618;28;20445;-64
2022/07/19 11:00:21;;;;;;;;;;;;;;;34.63;11.46;95934.44;4995777;28;19933;-63
2022/07/19 11:02:47;;;;;;;;;;;;;;;35.10;10.34;95922.59;4979555;28;19925;-65
2022/07/19 11:05:21;;;;;;;;;;;;;;;35.40;11.11;95924.56;4997171;28;19979;-62
2022/07/19 11:07:47;;;;;;;;;;;;;;;35.14;10.34;95923.53;4996044;28;20283;-63
2022/07/19 11:10:13;;;;;;;;;;;;;;;35.90;10.41;95919.38;4997754;28;19922;-63
2022/07/19 11:12:38;;;;;;;;;;;;;;;36.13;10.46;95919.91;4981117;28;19971;-65
2022/07/19 11:15:05;;;;;;;;;;;;;;;36.19;10.08;95924.06;4996953;28;20452;-63
2022/07/19 11:17:30;;;;;;;;;;;;;;;36.22;10.43;95930.09;4998101;28;19925;-65
2022/07/19 11:19:59;;;;;;;;;;;;;;;36.02;10.12;95915.88;4995650;28;20009;-65
2022/07/19 11:22:24;;;;;;;;;;;;;;;36.37;10.27;95918.34;4994897;28;20302;-65
2022/07/19 11:24:49;;;;;;;;;;;;;;;36.74;9.97;95908.53;4997858;28;19968;-65
2022/07/19 11:27:15;;;;;;;;;;;;;;;37.13;9.42;95911.84;4971183;28;20330;-65
2022/07/19 11:30:13;;;;;;;;;;;;;;;36.99;9.63;95903.84;4995523;28;20127;-64
2022/07/19 11:32:38;;;;;;;;;;;;;;;36.91;10.58;95910.31;4968271;28;20131;-65
2022/07/19 11:35:06;;;;;;;;;;;;;;;37.32;9.38;95907.69;5000240;28;19948;-64
2022/07/19 11:37:33;;;;;;;;;;;;;;;36.77;9.51;95911.41;4998972;28;19925;-65
2022/07/19 11:39:58;;;;;;;;;;;;;;;36.06;10.50;95905.78;5000490;28;19925;-63
2022/07/19 11:42:30;;;;;;;;;;;;;;;36.24;9.38;95898.09;5001768;28;19961;-65
2022/07/19 11:44:55;;;;;;;;;;;;;;;36.51;10.23;95892.31;5000956;28;20135;-63
2022/07/19 11:47:21;;;;;;;;;;;;;;;36.60;9.05;95895.78;5000133;28;19929;-65
2022/07/19 11:49:46;;;;;;;;;;;;;;;36.28;10.01;95896.28;5001109;28;20485;-64
2022/07/19 11:52:11;;;;;;;;;;;;;;;36.68;10.27;95885.78;5000819;28;20227;-65
2022/07/19 11:54:38;;;;;;;;;;;;;;;36.24;9.73;95880.66;5001474;28;19936;-65
2022/07/19 11:57:03;;;;;;;;;;;;;;;35.86;10.10;95888.81;5000294;28;20278;-64
2022/07/19 11:59:28;;;;;;;;;;;;;;;36.51;10.47;95886.78;4981799;28;20792;-63
2022/07/19 12:01:54;;;;;;;;;;;;;;;37.18;9.85;95881.06;4991118;28;20456;-65
2022/07/19 12:04:19;;;;;;;;;;;;;;;37.44;9.04;95871.59;4966281;28;20357;-63
2022/07/19 12:06:48;;;;;;;;;;;;;;;37.24;9.16;95875.31;4982217;28;20449;-66
2022/07/19 12:09:26;;;;;;;;;;;;;;;38.08;9.00;95876.66;4986093;28;20012;-64
2022/07/19 12:11:52;;;;;;;;;;;;;;;35.92;9.20;95879.13;4986129;28;19933;-64
2022/07/19 12:14:26;;;;;;;;;;;;;;;36.18;9.97;95875.34;4966495;28;20325;-64
2022/07/19 12:17:10;;;;;;;;;;;;;;;37.24;9.42;95867.00;4981904;28;19930;-65
2022/07/19 12:19:35;;;;;;;;;;;;;;;37.83;9.00;95865.63;4989304;28;19924;-64
2022/07/19 12:22:01;;;;;;;;;;;;;;;37.86;8.38;95875.25;4983017;28;19956;-64
2022/07/19 12:24:27;;;;;;;;;;;;;;;37.70;9.75;95869.56;4984923;28;20414;-63
2022/07/19 12:26:55;;;;;;;;;;;;;;;38.43;8.02;95868.88;4987063;28;19926;-64
2022/07/19 12:29:35;;;;;;;;;;;;;;;38.44;7.66;95862.13;4991431;28;19925;-65
2022/07/19 12:32:10;;;;;;;;;;;;;;;38.44;6.61;95854.59;4984460;28;19933;-63
2022/07/19 12:34:56;;;;;;;;;;;;;;;38.76;9.08;95859.38;4989819;28;19932;-64
2022/07/19 12:37:24;;;;;;;;;;;;;;;38.68;7.46;95852.03;4984019;28;19925;-65
2022/07/19 12:40:00;;;;;;;;;;;;;;;38.80;7.95;95854.72;4983731;28;19926;-64
2022/07/19 12:42:25;;;;;;;;;;;;;;;39.18;7.62;95852.47;4981631;28;20480;-63
2022/07/19 12:44:50;;;;;;;;;;;;;;;39.19;7.87;95851.31;4982949;28;20010;-63
2022/07/19 12:47:16;;;;;;;;;;;;;;;38.86;6.67;95858.84;4981450;28;19971;-65